KCQF

H L Sonny Callahan Airport

Fairhope, Alabama, USA
METAR KCQF 190255Z AUTO 00000KT 10SM CLR 23/23 A2994 RMK AO2
Observed Flight Rules
Sep-19 @ 02:55 UTC (24 minutes ago) Visual Flight Rules
Visibility Clouds
10 miles
  • Clear skies
Temperatures Readings
Current 23°C / 73°F
Dewpoint 23°C / 73°F
Humidity 100%
Altimeter 29.94" Hg
Pressure 1014 hPa
Elevation 28
METAR KCQF 190255Z AUTO 00000KT 10SM CLR 23/23 A2994 RMK AO2
Observed Flight Rules
Sep-19 @ 02:55 UTC
(24 minutes ago)
VFR
Clouds
  • Clear skies
Temperature Dewpoint
23°C / 73°F 23°C / 73°F
Humidity Altimeter Pressure
100% 29.94" Hg 1014 hPa